sensor_id;sensor_type;location;lat;lon;timestamp;pressure;altitude;pressure_sealevel;temperature;humidity
76660;BME280;65579;45.534;6.212;2023-08-24T00:01:46;98262.97;;;28.97;34.30
76660;BME280;65579;45.534;6.212;2023-08-24T00:04:11;98259.06;;;28.82;33.85
76660;BME280;65579;45.534;6.212;2023-08-24T00:06:36;98257.29;;;28.07;35.50
76660;BME280;65579;45.534;6.212;2023-08-24T00:09:02;98250.16;;;29.19;34.13
76660;BME280;65579;45.534;6.212;2023-08-24T00:11:27;98250.17;;;28.60;34.74
76660;BME280;65579;45.534;6.212;2023-08-24T00:13:52;98252.30;;;29.07;34.33
76660;BME280;65579;45.534;6.212;2023-08-24T00:16:18;98253.98;;;26.61;38.31
76660;BME280;65579;45.534;6.212;2023-08-24T00:18:43;98249.03;;;28.25;35.95
76660;BME280;65579;45.534;6.212;2023-08-24T00:21:09;98248.36;;;28.47;35.45
76660;BME280;65579;45.534;6.212;2023-08-24T00:23:35;98247.59;;;28.53;35.53
76660;BME280;65579;45.534;6.212;2023-08-24T00:26:01;98245.43;;;28.00;36.23
76660;BME280;65579;45.534;6.212;2023-08-24T00:28:26;98242.43;;;27.90;36.92
76660;BME280;65579;45.534;6.212;2023-08-24T00:30:52;98239.43;;;27.33;37.68
76660;BME280;65579;45.534;6.212;2023-08-24T00:33:18;98241.38;;;27.61;36.67
76660;BME280;65579;45.534;6.212;2023-08-24T00:35:43;98239.74;;;28.39;35.77
76660;BME280;65579;45.534;6.212;2023-08-24T00:38:08;98238.02;;;28.37;35.67
76660;BME280;65579;45.534;6.212;2023-08-24T00:40:34;98240.38;;;28.21;36.06
76660;BME280;65579;45.534;6.212;2023-08-24T00:43:00;98238.82;;;25.85;39.77
76660;BME280;65579;45.534;6.212;2023-08-24T00:45:25;98239.13;;;27.24;37.16
76660;BME280;65579;45.534;6.212;2023-08-24T00:47:50;98238.32;;;25.66;40.66
76660;BME280;65579;45.534;6.212;2023-08-24T00:50:16;98230.46;;;25.62;40.05
76660;BME280;65579;45.534;6.212;2023-08-24T00:52:42;98234.47;;;24.79;41.21
76660;BME280;65579;45.534;6.212;2023-08-24T00:55:08;98234.53;;;27.03;38.50
76660;BME280;65579;45.534;6.212;2023-08-24T00:57:33;98231.90;;;27.45;38.14
76660;BME280;65579;45.534;6.212;2023-08-24T00:59:59;98230.82;;;24.39;42.56
76660;BME280;65579;45.534;6.212;2023-08-24T01:02:24;98228.36;;;24.06;44.42
76660;BME280;65579;45.534;6.212;2023-08-24T01:04:49;98230.38;;;23.64;46.08
76660;BME280;65579;45.534;6.212;2023-08-24T01:07:16;98227.06;;;26.05;41.30
76660;BME280;65579;45.534;6.212;2023-08-24T01:09:41;98227.34;;;26.58;39.72
76660;BME280;65579;45.534;6.212;2023-08-24T01:12:14;98230.50;;;24.64;43.26
76660;BME280;65579;45.534;6.212;2023-08-24T01:14:41;98232.68;;;25.22;43.19
76660;BME280;65579;45.534;6.212;2023-08-24T01:16:59;98233.31;;;26.01;40.75
76660;BME280;65579;45.534;6.212;2023-08-24T01:19:34;98231.12;;;26.71;39.47
76660;BME280;65579;45.534;6.212;2023-08-24T01:21:49;98235.71;;;25.04;41.81
76660;BME280;65579;45.534;6.212;2023-08-24T01:24:21;98234.39;;;25.00;42.53
76660;BME280;65579;45.534;6.212;2023-08-24T01:26:40;98238.30;;;25.11;40.86
76660;BME280;65579;45.534;6.212;2023-08-24T01:29:05;98238.40;;;26.35;39.91
76660;BME280;65579;45.534;6.212;2023-08-24T01:31:30;98234.08;;;27.24;38.27
76660;BME280;65579;45.534;6.212;2023-08-24T01:33:56;98233.11;;;27.59;37.70
76660;BME280;65579;45.534;6.212;2023-08-24T01:36:22;98235.60;;;26.36;40.15
76660;BME280;65579;45.534;6.212;2023-08-24T01:38:53;98242.12;;;27.16;38.98
76660;BME280;65579;45.534;6.212;2023-08-24T01:41:18;98248.19;;;22.45;47.01
76660;BME280;65579;45.534;6.212;2023-08-24T01:43:40;98241.94;;;25.98;40.68
76660;BME280;65579;45.534;6.212;2023-08-24T01:46:05;98240.13;;;26.51;39.40
76660;BME280;65579;45.534;6.212;2023-08-24T01:48:30;98236.95;;;27.21;38.40
76660;BME280;65579;45.534;6.212;2023-08-24T01:50:56;98233.46;;;27.19;38.31
76660;BME280;65579;45.534;6.212;2023-08-24T01:53:21;98228.67;;;28.24;36.49
76660;BME280;65579;45.534;6.212;2023-08-24T01:55:46;98224.19;;;28.37;35.76
76660;BME280;65579;45.534;6.212;2023-08-24T01:58:11;98223.19;;;28.97;34.84
76660;BME280;65579;45.534;6.212;2023-08-24T02:00:37;98220.28;;;28.56;34.91
76660;BME280;65579;45.534;6.212;2023-08-24T02:03:02;98218.06;;;28.73;34.55
76660;BME280;65579;45.534;6.212;2023-08-24T02:05:28;98215.28;;;28.86;34.51
76660;BME280;65579;45.534;6.212;2023-08-24T02:07:54;98218.60;;;28.07;35.86
76660;BME280;65579;45.534;6.212;2023-08-24T02:10:19;98213.65;;;27.45;37.16
76660;BME280;65579;45.534;6.212;2023-08-24T02:12:45;98206.32;;;27.71;36.68
76660;BME280;65579;45.534;6.212;2023-08-24T02:15:10;98212.15;;;28.46;35.99
76660;BME280;65579;45.534;6.212;2023-08-24T02:17:36;98213.93;;;28.25;36.36
76660;BME280;65579;45.534;6.212;2023-08-24T02:20:02;98218.71;;;27.06;37.39
76660;BME280;65579;45.534;6.212;2023-08-24T02:22:29;98220.85;;;27.51;37.55
76660;BME280;65579;45.534;6.212;2023-08-24T02:24:53;98217.12;;;26.31;39.38
76660;BME280;65579;45.534;6.212;2023-08-24T02:27:19;98212.65;;;27.16;37.97
76660;BME280;65579;45.534;6.212;2023-08-24T02:29:44;98212.05;;;27.09;37.89
76660;BME280;65579;45.534;6.212;2023-08-24T02:32:10;98212.56;;;27.60;37.20
76660;BME280;65579;45.534;6.212;2023-08-24T02:34:35;98212.26;;;27.11;37.43
76660;BME280;65579;45.534;6.212;2023-08-24T02:37:01;98215.65;;;27.22;37.29
76660;BME280;65579;45.534;6.212;2023-08-24T02:39:26;98213.05;;;26.82;37.67
76660;BME280;65579;45.534;6.212;2023-08-24T02:41:52;98212.42;;;24.34;42.66
76660;BME280;65579;45.534;6.212;2023-08-24T02:44:17;98218.58;;;20.64;50.72
76660;BME280;65579;45.534;6.212;2023-08-24T02:46:44;98209.21;;;23.32;45.44
76660;BME280;65579;45.534;6.212;2023-08-24T02:49:09;98213.61;;;23.07;45.47
76660;BME280;65579;45.534;6.212;2023-08-24T02:51:35;98218.40;;;25.48;41.08
76660;BME280;65579;45.534;6.212;2023-08-24T02:54:00;98217.66;;;26.24;39.56
76660;BME280;65579;45.534;6.212;2023-08-24T02:56:26;98215.17;;;26.22;39.57
76660;BME280;65579;45.534;6.212;2023-08-24T02:58:52;98223.91;;;24.16;43.15
76660;BME280;65579;45.534;6.212;2023-08-24T03:01:17;98229.64;;;25.93;40.25
76660;BME280;65579;45.534;6.212;2023-08-24T03:03:43;98225.90;;;26.16;38.97
76660;BME280;65579;45.534;6.212;2023-08-24T03:06:08;98227.44;;;25.97;39.19
76660;BME280;65579;45.534;6.212;2023-08-24T03:08:34;98231.75;;;25.65;39.19
76660;BME280;65579;45.534;6.212;2023-08-24T03:11:00;98229.71;;;25.02;40.26
76660;BME280;65579;45.534;6.212;2023-08-24T03:13:26;98222.12;;;23.98;41.22
76660;BME280;65579;45.534;6.212;2023-08-24T03:15:51;98233.78;;;21.44;46.92
76660;BME280;65579;45.534;6.212;2023-08-24T03:18:17;98233.66;;;23.41;45.68
76660;BME280;65579;45.534;6.212;2023-08-24T03:20:43;98222.84;;;24.33;43.08
76660;BME280;65579;45.534;6.212;2023-08-24T03:23:07;98231.57;;;22.36;47.54
76660;BME280;65579;45.534;6.212;2023-08-24T03:25:36;98236.21;;;22.63;46.61
76660;BME280;65579;45.534;6.212;2023-08-24T03:27:58;98228.32;;;25.55;41.59
76660;BME280;65579;45.534;6.212;2023-08-24T03:30:24;98234.28;;;20.74;50.79
76660;BME280;65579;45.534;6.212;2023-08-24T03:32:50;98226.09;;;24.01;44.00
76660;BME280;65579;45.534;6.212;2023-08-24T03:35:16;98226.53;;;24.98;41.48
76660;BME280;65579;45.534;6.212;2023-08-24T03:37:41;98229.53;;;26.12;39.55
76660;BME280;65579;45.534;6.212;2023-08-24T03:40:08;98230.59;;;26.68;38.59
76660;BME280;65579;45.534;6.212;2023-08-24T03:42:32;98231.96;;;27.05;37.79
76660;BME280;65579;45.534;6.212;2023-08-24T03:44:59;98230.94;;;26.32;38.93
76660;BME280;65579;45.534;6.212;2023-08-24T03:47:24;98229.16;;;26.66;38.44
76660;BME280;65579;45.534;6.212;2023-08-24T03:49:49;98229.08;;;26.92;37.73
76660;BME280;65579;45.534;6.212;2023-08-24T03:52:15;98224.39;;;26.89;37.66
76660;BME280;65579;45.534;6.212;2023-08-24T03:54:41;98219.69;;;26.59;38.35
76660;BME280;65579;45.534;6.212;2023-08-24T03:57:05;98221.92;;;26.56;37.83
76660;BME280;65579;45.534;6.212;2023-08-24T03:59:31;98225.50;;;26.78;37.77
76660;BME280;65579;45.534;6.212;2023-08-24T04:01:57;98228.03;;;26.61;38.16
76660;BME280;65579;45.534;6.212;2023-08-24T04:04:23;98231.07;;;25.13;40.69
76660;BME280;65579;45.534;6.212;2023-08-24T04:06:48;98233.82;;;24.40;42.71
76660;BME280;65579;45.534;6.212;2023-08-24T04:09:14;98238.64;;;22.83;45.17
76660;BME280;65579;45.534;6.212;2023-08-24T04:11:40;98236.47;;;24.95;41.17
76660;BME280;65579;45.534;6.212;2023-08-24T04:14:05;98238.67;;;26.20;39.26
76660;BME280;65579;45.534;6.212;2023-08-24T04:16:31;98239.34;;;25.65;39.59
76660;BME280;65579;45.534;6.212;2023-08-24T04:18:57;98239.48;;;24.88;41.52
76660;BME280;65579;45.534;6.212;2023-08-24T04:21:23;98239.80;;;25.40;40.50
76660;BME280;65579;45.534;6.212;2023-08-24T04:23:48;98237.68;;;26.32;38.68
76660;BME280;65579;45.534;6.212;2023-08-24T04:26:14;98232.78;;;26.76;37.96
76660;BME280;65579;45.534;6.212;2023-08-24T04:28:40;98233.50;;;24.72;41.01
76660;BME280;65579;45.534;6.212;2023-08-24T04:31:05;98228.93;;;26.46;38.36
76660;BME280;65579;45.534;6.212;2023-08-24T04:33:31;98227.52;;;26.84;37.96
76660;BME280;65579;45.534;6.212;2023-08-24T04:35:57;98226.31;;;26.73;37.38
76660;BME280;65579;45.534;6.212;2023-08-24T04:38:22;98233.80;;;26.95;37.13
76660;BME280;65579;45.534;6.212;2023-08-24T04:40:49;98232.76;;;26.81;37.28
76660;BME280;65579;45.534;6.212;2023-08-24T04:43:12;98231.51;;;26.91;37.77
76660;BME280;65579;45.534;6.212;2023-08-24T04:45:38;98230.62;;;24.72;40.18
76660;BME280;65579;45.534;6.212;2023-08-24T04:48:05;98231.70;;;24.57;40.61
76660;BME280;65579;45.534;6.212;2023-08-24T04:50:30;98230.50;;;26.05;38.30
76660;BME280;65579;45.534;6.212;2023-08-24T04:52:55;98236.18;;;24.93;41.59
76660;BME280;65579;45.534;6.212;2023-08-24T04:55:20;98233.76;;;22.98;45.44
76660;BME280;65579;45.534;6.212;2023-08-24T04:57:46;98228.62;;;24.81;41.27
76660;BME280;65579;45.534;6.212;2023-08-24T05:00:12;98230.69;;;25.38;40.05
76660;BME280;65579;45.534;6.212;2023-08-24T05:02:37;98235.07;;;25.96;39.18
76660;BME280;65579;45.534;6.212;2023-08-24T05:05:02;98236.12;;;26.33;38.59
76660;BME280;65579;45.534;6.212;2023-08-24T05:07:28;98243.17;;;21.95;47.28
76660;BME280;65579;45.534;6.212;2023-08-24T05:09:54;98238.34;;;24.36;43.33
76660;BME280;65579;45.534;6.212;2023-08-24T05:12:19;98242.17;;;25.87;40.53
76660;BME280;65579;45.534;6.212;2023-08-24T05:14:45;98244.22;;;25.96;39.39
76660;BME280;65579;45.534;6.212;2023-08-24T05:17:10;98244.99;;;26.52;38.31
76660;BME280;65579;45.534;6.212;2023-08-24T05:19:36;98247.81;;;26.59;38.00
76660;BME280;65579;45.534;6.212;2023-08-24T05:22:01;98250.63;;;27.12;37.47
76660;BME280;65579;45.534;6.212;2023-08-24T05:24:27;98253.84;;;26.88;37.74
76660;BME280;65579;45.534;6.212;2023-08-24T05:26:53;98257.42;;;26.93;37.58
76660;BME280;65579;45.534;6.212;2023-08-24T05:29:18;98257.18;;;25.73;40.07
76660;BME280;65579;45.534;6.212;2023-08-24T05:31:43;98259.91;;;24.30;42.66
76660;BME280;65579;45.534;6.212;2023-08-24T05:34:10;98256.85;;;24.85;42.73
76660;BME280;65579;45.534;6.212;2023-08-24T05:36:34;98255.09;;;26.07;39.94
76660;BME280;65579;45.534;6.212;2023-08-24T05:39:00;98254.79;;;26.80;38.44
76660;BME280;65579;45.534;6.212;2023-08-24T05:41:26;98254.64;;;27.16;37.62
76660;BME280;65579;45.534;6.212;2023-08-24T05:43:51;98252.73;;;27.09;37.35
76660;BME280;65579;45.534;6.212;2023-08-24T05:46:16;98258.29;;;27.15;37.85
76660;BME280;65579;45.534;6.212;2023-08-24T05:48:42;98256.06;;;26.98;38.08
76660;BME280;65579;45.534;6.212;2023-08-24T05:51:08;98257.10;;;27.14;37.79
76660;BME280;65579;45.534;6.212;2023-08-24T05:53:33;98259.46;;;25.58;40.27
76660;BME280;65579;45.534;6.212;2023-08-24T05:55:59;98261.04;;;26.47;39.71
76660;BME280;65579;45.534;6.212;2023-08-24T05:58:24;98256.79;;;26.70;38.94
76660;BME280;65579;45.534;6.212;2023-08-24T06:00:56;98258.63;;;27.37;38.34
76660;BME280;65579;45.534;6.212;2023-08-24T06:03:16;98258.61;;;26.87;38.22
76660;BME280;65579;45.534;6.212;2023-08-24T06:05:41;98260.42;;;23.54;44.53
76660;BME280;65579;45.534;6.212;2023-08-24T06:08:07;98264.52;;;24.36;42.68
76660;BME280;65579;45.534;6.212;2023-08-24T06:10:33;98266.77;;;23.01;45.08
76660;BME280;65579;45.534;6.212;2023-08-24T06:12:58;98266.76;;;23.10;45.99
76660;BME280;65579;45.534;6.212;2023-08-24T06:15:23;98261.07;;;24.54;42.40
76660;BME280;65579;45.534;6.212;2023-08-24T06:17:49;98262.40;;;25.87;40.21
76660;BME280;65579;45.534;6.212;2023-08-24T06:20:15;98262.79;;;25.81;39.63
76660;BME280;65579;45.534;6.212;2023-08-24T06:22:40;98264.07;;;26.66;38.70
76660;BME280;65579;45.534;6.212;2023-08-24T06:25:07;98263.21;;;26.51;38.87
76660;BME280;65579;45.534;6.212;2023-08-24T06:27:31;98271.04;;;27.02;38.12
76660;BME280;65579;45.534;6.212;2023-08-24T06:29:57;98273.37;;;25.93;39.44
76660;BME280;65579;45.534;6.212;2023-08-24T06:32:22;98273.16;;;25.47;40.13
76660;BME280;65579;45.534;6.212;2023-08-24T06:34:48;98276.57;;;26.06;39.85
76660;BME280;65579;45.534;6.212;2023-08-24T06:37:13;98273.37;;;26.48;38.85
76660;BME280;65579;45.534;6.212;2023-08-24T06:39:39;98276.69;;;27.15;38.33
76660;BME280;65579;45.534;6.212;2023-08-24T06:42:05;98278.57;;;25.57;41.16
76660;BME280;65579;45.534;6.212;2023-08-24T06:44:30;98271.97;;;27.01;38.18
76660;BME280;65579;45.534;6.212;2023-08-24T06:46:56;98276.02;;;27.88;37.27
76660;BME280;65579;45.534;6.212;2023-08-24T06:49:22;98276.19;;;28.16;36.12
76660;BME280;65579;45.534;6.212;2023-08-24T06:51:47;98276.40;;;27.93;36.59
76660;BME280;65579;45.534;6.212;2023-08-24T06:54:13;98279.83;;;28.27;35.59
76660;BME280;65579;45.534;6.212;2023-08-24T06:56:39;98279.05;;;28.57;35.08
76660;BME280;65579;45.534;6.212;2023-08-24T06:59:05;98278.89;;;28.27;35.88
76660;BME280;65579;45.534;6.212;2023-08-24T07:01:31;98282.38;;;28.12;36.07
76660;BME280;65579;45.534;6.212;2023-08-24T07:03:55;98284.63;;;27.41;37.24
76660;BME280;65579;45.534;6.212;2023-08-24T07:06:20;98283.54;;;28.70;34.90
76660;BME280;65579;45.534;6.212;2023-08-24T07:08:46;98274.88;;;29.15;32.61
76660;BME280;65579;45.534;6.212;2023-08-24T07:11:12;98273.25;;;29.56;32.87
76660;BME280;65579;45.534;6.212;2023-08-24T07:13:37;98272.03;;;30.12;31.64
76660;BME280;65579;45.534;6.212;2023-08-24T07:16:03;98273.40;;;30.50;30.46
76660;BME280;65579;45.534;6.212;2023-08-24T07:18:28;98271.84;;;30.57;30.20
76660;BME280;65579;45.534;6.212;2023-08-24T07:20:54;98270.54;;;30.76;29.79
76660;BME280;65579;45.534;6.212;2023-08-24T07:23:19;98269.12;;;30.41;30.57
76660;BME280;65579;45.534;6.212;2023-08-24T07:25:45;98269.98;;;28.22;33.55
76660;BME280;65579;45.534;6.212;2023-08-24T07:28:10;98258.86;;;28.44;33.44
76660;BME280;65579;45.534;6.212;2023-08-24T07:30:36;98262.37;;;27.44;35.16
76660;BME280;65579;45.534;6.212;2023-08-24T07:33:02;98256.75;;;26.25;36.28
76660;BME280;65579;45.534;6.212;2023-08-24T07:35:27;98249.70;;;29.19;31.45
76660;BME280;65579;45.534;6.212;2023-08-24T07:37:53;98247.03;;;29.33;31.07
76660;BME280;65579;45.534;6.212;2023-08-24T07:40:18;98246.08;;;30.99;29.53
76660;BME280;65579;45.534;6.212;2023-08-24T07:42:44;98243.42;;;31.12;28.31
76660;BME280;65579;45.534;6.212;2023-08-24T07:45:10;98243.30;;;28.83;31.06
76660;BME280;65579;45.534;6.212;2023-08-24T07:47:35;98238.04;;;29.34;30.36
76660;BME280;65579;45.534;6.212;2023-08-24T07:50:00;98232.69;;;30.10;29.88
76660;BME280;65579;45.534;6.212;2023-08-24T07:52:26;98229.36;;;30.51;29.00
76660;BME280;65579;45.534;6.212;2023-08-24T07:54:51;98228.45;;;30.40;29.32
76660;BME280;65579;45.534;6.212;2023-08-24T07:57:16;98228.64;;;30.56;29.31
76660;BME280;65579;45.534;6.212;2023-08-24T07:59:42;98224.30;;;31.02;28.32
76660;BME280;65579;45.534;6.212;2023-08-24T08:02:08;98219.09;;;29.94;29.59
76660;BME280;65579;45.534;6.212;2023-08-24T08:04:32;98215.99;;;30.06;29.83
76660;BME280;65579;45.534;6.212;2023-08-24T08:06:58;98213.57;;;29.42;30.56
76660;BME280;65579;45.534;6.212;2023-08-24T08:09:23;98209.17;;;30.20;30.11
76660;BME280;65579;45.534;6.212;2023-08-24T08:11:48;98208.01;;;28.87;32.48
76660;BME280;65579;45.534;6.212;2023-08-24T08:14:14;98206.20;;;28.43;32.13
76660;BME280;65579;45.534;6.212;2023-08-24T08:16:39;98205.88;;;28.23;31.77
76660;BME280;65579;45.534;6.212;2023-08-24T08:19:04;98204.05;;;30.29;29.75
76660;BME280;65579;45.534;6.212;2023-08-24T08:21:30;98203.74;;;29.04;31.49
76660;BME280;65579;45.534;6.212;2023-08-24T08:23:55;98198.28;;;30.04;31.29
76660;BME280;65579;45.534;6.212;2023-08-24T08:26:21;98200.56;;;29.07;32.70
76660;BME280;65579;45.534;6.212;2023-08-24T08:28:46;98198.81;;;28.82;32.55
76660;BME280;65579;45.534;6.212;2023-08-24T08:31:12;98192.73;;;28.77;32.23
76660;BME280;65579;45.534;6.212;2023-08-24T08:33:37;98192.54;;;27.81;33.72
76660;BME280;65579;45.534;6.212;2023-08-24T08:36:06;98190.09;;;28.74;32.54
76660;BME280;65579;45.534;6.212;2023-08-24T08:38:28;98188.91;;;28.32;32.09
76660;BME280;65579;45.534;6.212;2023-08-24T08:40:56;98190.76;;;28.37;31.86
76660;BME280;65579;45.534;6.212;2023-08-24T08:43:23;98184.23;;;30.14;29.29
76660;BME280;65579;45.534;6.212;2023-08-24T08:45:44;98185.84;;;29.34;30.46
76660;BME280;65579;45.534;6.212;2023-08-24T08:48:11;98183.89;;;28.90;31.74
76660;BME280;65579;45.534;6.212;2023-08-24T08:50:37;98180.05;;;29.97;30.70
76660;BME280;65579;45.534;6.212;2023-08-24T08:53:02;98175.64;;;29.77;30.07
76660;BME280;65579;45.534;6.212;2023-08-24T08:55:28;98176.82;;;30.30;30.18
76660;BME280;65579;45.534;6.212;2023-08-24T08:57:56;98178.33;;;30.81;28.57
76660;BME280;65579;45.534;6.212;2023-08-24T09:00:18;98176.04;;;30.26;30.15
76660;BME280;65579;45.534;6.212;2023-08-24T09:02:44;98178.86;;;31.44;28.13
76660;BME280;65579;45.534;6.212;2023-08-24T09:05:08;98177.66;;;31.39;28.36
76660;BME280;65579;45.534;6.212;2023-08-24T09:07:34;98174.26;;;29.57;30.52
76660;BME280;65579;45.534;6.212;2023-08-24T09:09:59;98170.68;;;29.08;31.13
76660;BME280;65579;45.534;6.212;2023-08-24T09:12:25;98164.81;;;30.24;29.50
76660;BME280;65579;45.534;6.212;2023-08-24T09:14:50;98163.14;;;28.56;32.49
76660;BME280;65579;45.534;6.212;2023-08-24T09:17:21;98160.76;;;29.51;30.85
76660;BME280;65579;45.534;6.212;2023-08-24T09:19:41;98156.52;;;29.38;31.45
76660;BME280;65579;45.534;6.212;2023-08-24T09:22:07;98153.20;;;30.79;28.83
76660;BME280;65579;45.534;6.212;2023-08-24T09:24:32;98147.97;;;29.72;31.04
76660;BME280;65579;45.534;6.212;2023-08-24T09:26:57;98140.91;;;29.94;30.14
76660;BME280;65579;45.534;6.212;2023-08-24T09:29:22;98141.51;;;29.26;32.11
76660;BME280;65579;45.534;6.212;2023-08-24T09:31:50;98139.85;;;30.85;29.15
76660;BME280;65579;45.534;6.212;2023-08-24T09:34:14;98142.68;;;30.67;29.61
76660;BME280;65579;45.534;6.212;2023-08-24T09:36:40;98139.10;;;29.89;29.23
76660;BME280;65579;45.534;6.212;2023-08-24T09:39:05;98138.34;;;30.67;29.17
76660;BME280;65579;45.534;6.212;2023-08-24T09:41:38;98131.89;;;32.02;27.16
76660;BME280;65579;45.534;6.212;2023-08-24T09:44:03;98127.42;;;31.53;27.74
76660;BME280;65579;45.534;6.212;2023-08-24T09:46:24;98118.65;;;31.94;27.69
76660;BME280;65579;45.534;6.212;2023-08-24T09:48:46;98112.11;;;32.75;26.07
76660;BME280;65579;45.534;6.212;2023-08-24T09:51:12;98109.14;;;31.72;26.53
76660;BME280;65579;45.534;6.212;2023-08-24T09:53:37;98113.02;;;31.10;27.17
76660;BME280;65579;45.534;6.212;2023-08-24T09:56:03;98109.68;;;33.04;26.03
76660;BME280;65579;45.534;6.212;2023-08-24T09:58:28;98104.20;;;32.35;26.17
76660;BME280;65579;45.534;6.212;2023-08-24T10:00:54;98104.74;;;32.05;26.86
76660;BME280;65579;45.534;6.212;2023-08-24T10:03:20;98103.00;;;33.03;25.24
76660;BME280;65579;45.534;6.212;2023-08-24T10:05:44;98103.11;;;33.14;25.45
76660;BME280;65579;45.534;6.212;2023-08-24T10:08:11;98107.53;;;32.90;26.66
76660;BME280;65579;45.534;6.212;2023-08-24T10:10:36;98101.01;;;33.25;24.77
76660;BME280;65579;45.534;6.212;2023-08-24T10:13:07;98095.60;;;34.23;23.24
76660;BME280;65579;45.534;6.212;2023-08-24T10:15:27;98092.08;;;34.20;23.42
76660;BME280;65579;45.534;6.212;2023-08-24T10:17:53;98088.15;;;35.07;23.38
76660;BME280;65579;45.534;6.212;2023-08-24T10:20:19;98081.97;;;34.46;23.79
76660;BME280;65579;45.534;6.212;2023-08-24T10:22:43;98076.22;;;33.57;24.89
76660;BME280;65579;45.534;6.212;2023-08-24T10:25:09;98070.48;;;33.75;23.97
76660;BME280;65579;45.534;6.212;2023-08-24T10:27:34;98067.88;;;34.20;23.03
76660;BME280;65579;45.534;6.212;2023-08-24T10:29:59;98067.47;;;34.56;22.34
76660;BME280;65579;45.534;6.212;2023-08-24T10:32:25;98065.09;;;35.11;21.70
76660;BME280;65579;45.534;6.212;2023-08-24T10:34:50;98054.31;;;35.52;22.28
76660;BME280;65579;45.534;6.212;2023-08-24T10:37:15;98050.49;;;35.27;22.16
76660;BME280;65579;45.534;6.212;2023-08-24T10:39:44;98049.75;;;35.45;21.16
76660;BME280;65579;45.534;6.212;2023-08-24T10:42:10;98048.35;;;36.43;20.58
76660;BME280;65579;45.534;6.212;2023-08-24T10:44:34;98048.29;;;36.33;20.78
76660;BME280;65579;45.534;6.212;2023-08-24T10:47:06;98049.29;;;34.23;22.71
76660;BME280;65579;45.534;6.212;2023-08-24T10:49:22;98047.09;;;34.19;22.86
76660;BME280;65579;45.534;6.212;2023-08-24T10:51:47;98042.71;;;34.63;23.30
76660;BME280;65579;45.534;6.212;2023-08-24T10:54:15;98037.46;;;34.17;22.75
76660;BME280;65579;45.534;6.212;2023-08-24T10:56:39;98034.83;;;35.14;21.29
76660;BME280;65579;45.534;6.212;2023-08-24T10:59:13;98033.04;;;35.04;22.04
76660;BME280;65579;45.534;6.212;2023-08-24T11:01:32;98026.59;;;35.73;21.73
76660;BME280;65579;45.534;6.212;2023-08-24T11:03:55;98024.56;;;35.69;20.74
76660;BME280;65579;45.534;6.212;2023-08-24T11:06:21;98028.51;;;34.11;22.93
76660;BME280;65579;45.534;6.212;2023-08-24T11:08:47;98025.73;;;35.47;22.10
76660;BME280;65579;45.534;6.212;2023-08-24T11:11:19;98025.06;;;35.47;20.91
76660;BME280;65579;45.534;6.212;2023-08-24T11:13:37;98016.43;;;35.81;19.78
76660;BME280;65579;45.534;6.212;2023-08-24T11:16:02;98017.29;;;34.87;21.23
76660;BME280;65579;45.534;6.212;2023-08-24T11:18:28;98011.16;;;35.88;21.25
76660;BME280;65579;45.534;6.212;2023-08-24T11:20:54;98007.53;;;35.48;21.04
76660;BME280;65579;45.534;6.212;2023-08-24T11:23:18;98007.06;;;34.23;22.92
76660;BME280;65579;45.534;6.212;2023-08-24T11:25:44;98001.97;;;33.55;23.19
76660;BME280;65579;45.534;6.212;2023-08-24T11:28:09;98002.19;;;35.28;21.82
76660;BME280;65579;45.534;6.212;2023-08-24T11:30:34;98000.57;;;35.01;22.98
76660;BME280;65579;45.534;6.212;2023-08-24T11:32:59;97991.69;;;36.00;20.34
76660;BME280;65579;45.534;6.212;2023-08-24T11:35:24;97991.04;;;36.37;19.93
76660;BME280;65579;45.534;6.212;2023-08-24T11:37:51;97992.09;;;36.84;20.01
76660;BME280;65579;45.534;6.212;2023-08-24T11:40:17;97985.25;;;37.27;20.06
76660;BME280;65579;45.534;6.212;2023-08-24T11:42:40;97980.86;;;37.46;19.69
76660;BME280;65579;45.534;6.212;2023-08-24T11:45:11;97977.10;;;37.67;20.54
76660;BME280;65579;45.534;6.212;2023-08-24T11:47:31;97973.55;;;37.64;18.77
76660;BME280;65579;45.534;6.212;2023-08-24T11:49:56;97975.87;;;37.44;18.55
76660;BME280;65579;45.534;6.212;2023-08-24T11:52:22;97973.25;;;37.50;17.92
76660;BME280;65579;45.534;6.212;2023-08-24T11:54:46;97970.53;;;37.69;18.25
76660;BME280;65579;45.534;6.212;2023-08-24T11:57:12;97970.27;;;37.24;18.66
76660;BME280;65579;45.534;6.212;2023-08-24T11:59:38;97968.75;;;37.64;18.93
76660;BME280;65579;45.534;6.212;2023-08-24T12:02:03;97966.94;;;37.90;17.50
76660;BME280;65579;45.534;6.212;2023-08-24T12:04:28;97966.43;;;38.54;17.11
76660;BME280;65579;45.534;6.212;2023-08-24T12:06:53;97959.46;;;37.60;17.73
76660;BME280;65579;45.534;6.212;2023-08-24T12:09:19;97960.76;;;38.85;17.34
76660;BME280;65579;45.534;6.212;2023-08-24T12:11:44;97956.78;;;38.14;16.56
76660;BME280;65579;45.534;6.212;2023-08-24T12:14:17;97957.51;;;38.25;17.36
76660;BME280;65579;45.534;6.212;2023-08-24T12:16:35;97950.90;;;38.27;17.16
76660;BME280;65579;45.534;6.212;2023-08-24T12:19:00;97940.04;;;38.15;17.43
76660;BME280;65579;45.534;6.212;2023-08-24T12:21:26;97939.35;;;39.10;16.51
76660;BME280;65579;45.534;6.212;2023-08-24T12:23:58;97938.95;;;38.55;17.03
76660;BME280;65579;45.534;6.212;2023-08-24T12:26:19;97938.07;;;37.54;17.19
76660;BME280;65579;45.534;6.212;2023-08-24T12:28:43;97935.84;;;37.93;17.34
76660;BME280;65579;45.534;6.212;2023-08-24T12:31:08;97933.32;;;39.13;16.68
76660;BME280;65579;45.534;6.212;2023-08-24T12:33:34;97930.44;;;39.11;16.70
76660;BME280;65579;45.534;6.212;2023-08-24T12:35:59;97925.71;;;38.21;17.39
76660;BME280;65579;45.534;6.212;2023-08-24T12:38:26;97924.52;;;37.83;17.83
76660;BME280;65579;45.534;6.212;2023-08-24T12:40:50;97926.05;;;38.55;15.85
76660;BME280;65579;45.534;6.212;2023-08-24T12:43:15;97925.27;;;39.16;16.84
76660;BME280;65579;45.534;6.212;2023-08-24T12:45:41;97922.89;;;38.98;15.33
76660;BME280;65579;45.534;6.212;2023-08-24T12:48:06;97915.97;;;38.62;16.14
76660;BME280;65579;45.534;6.212;2023-08-24T12:50:31;97912.43;;;38.96;16.43